createdAt,value
2022-08-05T00:00:00.440Z,149022.88
2022-08-05T00:02:28.749Z,149037.56
2022-08-05T00:04:56.867Z,149044.91
2022-08-05T00:07:58.941Z,149022.88
2022-08-05T00:10:11.885Z,149006.91
2022-08-05T00:12:56.072Z,148948.06
2022-08-05T00:15:55.149Z,149010.59
2022-08-05T00:18:21.353Z,148883.06
2022-08-05T00:20:50.429Z,148863.47
2022-08-05T00:23:44.374Z,148704.13
2022-08-05T00:26:05.794Z,148689.44
2022-08-05T00:28:33.003Z,148658.81
2022-08-05T00:31:04.212Z,148642.91
2022-08-05T00:34:56.128Z,148606.16
2022-08-05T00:37:11.598Z,148606.16
2022-08-05T00:39:13.383Z,148576.75
2022-08-05T00:41:52.028Z,148537.53
2022-08-05T00:44:30.988Z,148531.41
2022-08-05T00:47:04.271Z,148516.69
2022-08-05T00:49:33.116Z,148487.31
2022-08-05T00:52:28.365Z,148478.75
2022-08-05T00:54:56.248Z,148559.63
2022-08-05T00:57:25.422Z,148525.25
2022-08-05T01:00:07.218Z,148486.13
2022-08-05T01:02:38.308Z,148466.50
2022-08-05T01:05:10.157Z,148479.97
2022-08-05T01:07:37.377Z,148486.13
2022-08-05T01:10:30.690Z,148476.31
2022-08-05T01:13:12.780Z,148509.38
2022-08-05T01:15:47.927Z,148497.13
2022-08-05T01:18:23.626Z,148509.38
2022-08-05T01:21:38.058Z,148481.22
2022-08-05T01:24:14.324Z,148471.44
2022-08-05T01:26:56.732Z,148466.50
2022-08-05T01:29:36.460Z,148494.69
2022-08-05T01:32:12.373Z,148488.53
2022-08-05T01:34:52.918Z,148473.84
2022-08-05T01:37:29.650Z,148488.53
2022-08-05T01:40:02.346Z,148495.91
2022-08-05T01:42:31.457Z,148464.06
2022-08-05T01:45:02.221Z,148455.50
2022-08-05T01:47:39.589Z,148457.97
2022-08-05T01:50:15.568Z,148464.06
2022-08-05T01:52:45.499Z,148446.91
2022-08-05T01:55:20.890Z,148432.22
2022-08-05T01:58:29.640Z,148429.75
2022-08-05T02:00:39.556Z,148428.56
2022-08-05T02:03:29.011Z,148423.66
2022-08-05T02:06:03.554Z,148417.53
2022-08-05T02:08:58.351Z,148412.66
2022-08-05T02:11:33.995Z,148400.41
2022-08-05T02:14:12.687Z,148393.03
2022-08-05T02:16:54.631Z,148363.69
2022-08-05T02:19:34.408Z,148404.09
2022-08-05T02:22:26.742Z,148366.16
2022-08-05T02:25:02.088Z,148356.31
2022-08-05T02:27:58.566Z,148341.59
2022-08-05T02:30:22.302Z,148337.91
2022-08-05T02:32:52.514Z,148319.56
2022-08-05T02:35:27.769Z,148358.78
2022-08-05T02:38:00.332Z,148323.22
2022-08-05T02:40:31.365Z,148299.97
2022-08-05T02:43:00.092Z,148277.94
2022-08-05T02:45:28.969Z,148291.41
2022-08-05T02:48:17.463Z,148317.13
2022-08-05T02:50:47.375Z,148297.56
2022-08-05T02:53:19.450Z,148309.78
2022-08-05T02:55:54.814Z,148290.19
2022-08-05T02:58:28.869Z,148319.56
2022-08-05T03:01:02.027Z,148276.72
2022-08-05T03:03:33.929Z,148307.34
2022-08-05T03:06:55.672Z,148295.09
2022-08-05T03:09:07.794Z,148259.59
2022-08-05T03:11:55.218Z,148307.34
2022-08-05T03:14:21.964Z,148299.97
2022-08-05T03:16:49.503Z,148298.78
2022-08-05T03:19:33.511Z,148302.44
2022-08-05T03:22:05.087Z,148282.84
2022-08-05T03:24:46.923Z,148314.66
2022-08-05T03:27:14.647Z,148312.22
2022-08-05T03:29:44.577Z,148292.66
2022-08-05T03:32:30.951Z,148317.13
2022-08-05T03:34:59.542Z,148371.03
2022-08-05T03:37:27.969Z,148260.84
2022-08-05T03:39:58.618Z,148336.69
2022-08-05T03:42:29.131Z,148319.56
2022-08-05T03:44:59.074Z,148363.69
2022-08-05T03:47:30.507Z,148368.56
2022-08-05T03:50:02.504Z,148367.38
2022-08-05T03:52:39.200Z,148380.81
2022-08-05T03:56:05.756Z,148368.56
2022-08-05T03:58:17.898Z,148361.25
2022-08-05T04:00:51.314Z,148369.78
2022-08-05T04:03:28.463Z,148366.16
2022-08-05T04:05:58.034Z,148330.59
2022-08-05T04:08:34.819Z,148353.91
2022-08-05T04:11:07.403Z,148367.38
2022-08-05T04:13:49.825Z,148318.34
2022-08-05T04:16:25.508Z,148396.72
2022-08-05T04:19:00.112Z,148333.03
2022-08-05T04:22:08.614Z,148324.50
2022-08-05T04:24:19.366Z,148320.81
2022-08-05T04:26:50.216Z,148334.28
2022-08-05T04:29:17.302Z,148341.59
2022-08-05T04:31:44.341Z,148314.66
2022-08-05T04:34:31.643Z,148280.41
2022-08-05T04:37:00.707Z,148311.03
2022-08-05T04:39:28.014Z,148319.56
2022-08-05T04:41:55.530Z,148309.78
2022-08-05T04:44:29.478Z,148304.88
2022-08-05T04:46:59.208Z,148299.97
2022-08-05T04:49:39.134Z,148243.69
2022-08-05T04:52:15.258Z,148290.19
2022-08-05T04:54:42.474Z,148297.56
2022-08-05T04:57:09.566Z,148317.13
2022-08-05T04:59:38.767Z,148286.53
2022-08-05T05:02:37.020Z,148339.16
2022-08-05T05:05:02.125Z,148339.16
2022-08-05T05:07:32.261Z,148309.78
2022-08-05T05:10:04.185Z,148296.31
2022-08-05T05:12:31.466Z,148349.00
2022-08-05T05:14:58.536Z,148353.91
2022-08-05T05:17:57.019Z,148339.16
2022-08-05T05:20:13.782Z,148309.78
2022-08-05T05:22:44.111Z,148312.22
2022-08-05T05:25:16.342Z,148318.34
2022-08-05T05:27:48.530Z,148328.13
2022-08-05T05:30:30.942Z,148334.28
2022-08-05T05:33:08.823Z,148344.06
2022-08-05T05:35:45.096Z,148330.59
2022-08-05T05:38:13.487Z,148356.31
2022-08-05T05:40:49.599Z,148380.81
2022-08-05T05:43:54.267Z,148378.34
2022-08-05T05:46:16.130Z,148353.91
2022-08-05T05:48:48.323Z,148366.16
2022-08-05T05:51:23.698Z,148393.03
2022-08-05T05:53:57.672Z,148366.16
2022-08-05T05:56:31.704Z,148400.41
2022-08-05T05:59:06.453Z,148438.34
2022-08-05T06:01:38.026Z,148455.50
2022-08-05T06:04:07.753Z,148454.28
2022-08-05T06:06:36.115Z,148498.31
2022-08-05T06:09:07.746Z,148473.84
2022-08-05T06:11:35.573Z,148559.63
2022-08-05T06:14:06.585Z,148519.16
2022-08-05T06:16:37.335Z,148520.38
2022-08-05T06:19:07.484Z,148495.91
2022-08-05T06:21:38.351Z,148491.00
2022-08-05T06:24:11.800Z,148440.81
2022-08-05T06:26:52.385Z,148467.75
2022-08-05T06:29:21.167Z,148489.78
2022-08-05T06:31:53.790Z,148562.06
2022-08-05T06:34:20.948Z,148544.94
2022-08-05T06:36:57.087Z,148557.16
2022-08-05T06:39:27.155Z,148620.84
2022-08-05T06:42:01.198Z,148612.25
2022-08-05T06:44:30.115Z,148662.47
2022-08-05T06:46:58.113Z,148718.81
2022-08-05T06:50:01.664Z,148674.75
2022-08-05T06:52:36.718Z,148685.75
2022-08-05T06:55:03.934Z,148682.06
2022-08-05T06:58:03.185Z,148677.19
2022-08-05T07:00:22.100Z,148673.53
2022-08-05T07:02:53.813Z,148705.34
2022-08-05T07:05:23.456Z,148662.47
2022-08-05T07:08:03.907Z,148740.94
2022-08-05T07:10:33.914Z,148780.16
2022-08-05T07:13:57.161Z,148742.13
2022-08-05T07:17:56.381Z,148664.97
2022-08-05T07:19:12.681Z,148666.16
2022-08-05T07:21:59.985Z,148635.53
2022-08-05T07:24:28.744Z,148581.69
2022-08-05T07:26:57.095Z,148667.38
2022-08-05T07:29:25.451Z,148661.28
2022-08-05T07:32:12.311Z,148625.75
2022-08-05T07:34:42.422Z,148579.22
2022-08-05T07:37:11.654Z,148558.38
2022-08-05T07:40:04.419Z,148514.28
2022-08-05T07:42:31.761Z,148552.25
2022-08-05T07:45:01.273Z,148628.22
2022-08-05T07:47:30.416Z,148541.25
2022-08-05T07:50:09.942Z,148618.41
2022-08-05T07:52:42.011Z,148717.59
2022-08-05T07:55:43.925Z,148733.59
2022-08-05T07:58:03.041Z,148723.72
2022-08-05T08:00:30.548Z,148740.94
2022-08-05T08:03:15.389Z,148763.00
2022-08-05T08:05:49.431Z,148738.50
2022-08-05T08:08:20.071Z,148794.84
2022-08-05T08:10:48.840Z,148742.13
2022-08-05T08:13:21.913Z,148731.13
2022-08-05T08:16:35.424Z,148662.47
2022-08-05T08:18:43.354Z,148713.94
2022-08-05T08:21:17.823Z,148740.94
2022-08-05T08:24:02.840Z,148772.78
2022-08-05T08:26:32.313Z,148789.94
2022-08-05T08:29:21.796Z,148804.66
2022-08-05T08:31:47.575Z,148713.94
2022-08-05T08:34:30.637Z,148713.94
2022-08-05T08:37:04.737Z,148721.28
2022-08-05T08:39:32.842Z,148721.28
2022-08-05T08:42:10.373Z,148683.31
2022-08-05T08:45:18.291Z,148684.53
2022-08-05T08:48:05.880Z,148623.31
2022-08-05T08:51:03.455Z,148701.72
2022-08-05T08:53:21.779Z,148650.22
2022-08-05T08:56:05.297Z,148736.03
2022-08-05T08:58:37.547Z,148796.06
2022-08-05T09:01:15.580Z,148824.25
2022-08-05T09:03:57.384Z,148815.66
2022-08-05T09:06:29.249Z,148802.22
2022-08-05T09:09:01.958Z,148787.47
2022-08-05T09:11:52.845Z,148809.53
2022-08-05T09:14:57.860Z,148740.94
2022-08-05T09:17:09.809Z,148706.59
2022-08-05T09:20:02.326Z,148709.03
2022-08-05T09:23:19.778Z,148672.28
2022-08-05T09:26:06.157Z,148604.94
2022-08-05T09:28:37.705Z,148593.91
2022-08-05T09:32:39.401Z,148548.56
2022-08-05T09:33:58.674Z,148535.06
2022-08-05T09:36:45.642Z,148625.75
2022-08-05T09:39:24.520Z,148699.22
2022-08-05T09:42:13.439Z,148718.81
2022-08-05T09:44:49.303Z,148664.97
2022-08-05T09:47:28.641Z,148566.94
2022-08-05T09:50:13.692Z,148527.75
2022-08-05T09:52:47.121Z,148582.91
2022-08-05T09:55:58.678Z,148608.59
2022-08-05T09:58:11.260Z,148803.44
2022-08-05T10:00:39.216Z,148883.06
2022-08-05T10:03:11.314Z,148907.59
2022-08-05T10:05:38.775Z,148930.94
2022-08-05T10:08:36.917Z,148971.34
2022-08-05T10:10:54.675Z,149029.00
2022-08-05T10:16:37.681Z,148850.00
2022-08-05T10:19:08.561Z,148792.38
2022-08-05T10:21:40.788Z,148753.19
2022-08-05T10:24:11.089Z,148750.72
2022-08-05T10:26:52.021Z,148777.69
2022-08-05T10:30:05.808Z,148729.91
2022-08-05T10:32:54.430Z,148851.19
2022-08-05T10:35:01.089Z,148921.09
2022-08-05T10:37:39.997Z,149037.56
2022-08-05T10:40:46.988Z,149027.78
2022-08-05T10:43:41.234Z,148939.47
2022-08-05T10:46:11.773Z,148949.31
2022-08-05T10:48:56.680Z,149055.97
2022-08-05T10:51:28.926Z,149057.19
2022-08-05T10:54:00.932Z,149059.66
2022-08-05T10:56:45.118Z,149145.50
2022-08-05T11:00:04.149Z,149162.69
2022-08-05T11:02:14.788Z,149223.97
2022-08-05T11:05:04.821Z,149204.38
2022-08-05T11:07:32.920Z,149167.59
2022-08-05T11:10:27.203Z,149049.81
2022-08-05T11:12:56.377Z,148991.00
2022-08-05T11:16:00.236Z,149013.03
2022-08-05T11:18:32.240Z,148912.56
2022-08-05T11:21:00.138Z,148982.41
2022-08-05T11:23:49.877Z,149016.72
2022-08-05T11:26:28.343Z,148944.38
2022-08-05T11:29:05.171Z,148944.38
2022-08-05T11:31:56.486Z,148924.78
2022-08-05T11:34:38.247Z,148880.66
2022-08-05T11:38:14.307Z,148873.28
2022-08-05T11:40:00.836Z,148853.69
2022-08-05T11:42:40.574Z,148720.06
2022-08-05T11:45:14.505Z,148699.22
2022-08-05T11:47:54.433Z,148635.53
2022-08-05T11:50:22.725Z,148557.16
2022-08-05T11:52:53.152Z,148453.06
2022-08-05T11:55:31.706Z,148439.59
2022-08-05T11:58:10.760Z,148479.97
2022-08-05T12:00:41.121Z,148395.50
2022-08-05T12:03:28.467Z,148356.31
2022-08-05T12:06:06.652Z,148149.47
2022-08-05T12:08:54.287Z,148123.75
2022-08-05T12:11:28.267Z,148236.34
2022-08-05T12:14:10.953Z,148126.19
2022-08-05T12:16:40.704Z,148176.41
2022-08-05T12:20:17.273Z,148165.41
2022-08-05T12:22:01.539Z,148180.06
2022-08-05T12:24:28.647Z,148072.41
2022-08-05T12:26:57.254Z,148093.16
2022-08-05T12:29:27.718Z,148062.63
2022-08-05T12:32:02.065Z,147969.66
2022-08-05T12:34:37.015Z,147995.34
2022-08-05T12:37:21.641Z,147985.56
2022-08-05T12:39:51.725Z,148019.78
2022-08-05T12:42:20.851Z,148035.72
2022-08-05T12:44:48.610Z,148040.59
2022-08-05T12:47:30.680Z,148050.38
2022-08-05T12:50:03.201Z,148122.56
2022-08-05T12:52:39.742Z,148161.72
2022-08-05T12:55:22.402Z,148189.84
2022-08-05T12:58:52.683Z,148355.09
2022-08-05T13:02:04.443Z,148406.50
2022-08-05T13:03:41.447Z,148467.75
2022-08-05T13:06:17.342Z,148401.63
2022-08-05T13:08:52.300Z,148439.59
2022-08-05T13:12:02.101Z,148412.66
2022-08-05T13:14:25.030Z,148422.44
2022-08-05T13:17:20.483Z,148422.44
2022-08-05T13:20:05.442Z,148400.41
2022-08-05T13:22:35.114Z,148280.41
2022-08-05T13:25:08.114Z,148336.69
2022-08-05T13:27:53.296Z,148395.50
2022-08-05T13:30:34.188Z,148405.28
2022-08-05T13:33:03.465Z,148462.84
2022-08-05T13:35:47.691Z,148422.44
2022-08-05T13:38:28.130Z,148407.75
2022-08-05T13:41:01.314Z,148318.34
2022-08-05T13:43:43.486Z,148274.31
2022-08-05T13:46:14.208Z,148366.16
2022-08-05T13:48:58.128Z,148386.94
2022-08-05T13:51:36.410Z,148478.75
2022-08-05T13:54:12.859Z,148488.53
2022-08-05T13:56:44.884Z,148554.72
2022-08-05T13:59:24.070Z,148601.25
2022-08-05T14:02:00.334Z,148662.47
2022-08-05T14:04:49.844Z,148701.72
2022-08-05T14:07:56.290Z,148683.31
2022-08-05T14:10:18.908Z,148767.88
2022-08-05T14:12:48.930Z,148728.72
2022-08-05T14:16:06.193Z,148783.84
2022-08-05T14:18:04.911Z,148812.00
2022-08-05T14:20:31.997Z,148826.72
2022-08-05T14:22:59.763Z,148780.16
2022-08-05T14:25:30.085Z,148723.72
2022-08-05T14:27:58.325Z,148581.69
2022-08-05T14:30:26.701Z,148645.31
2022-08-05T14:32:56.785Z,148640.44
2022-08-05T14:35:37.050Z,148639.22
2022-08-05T14:38:04.661Z,148728.72
2022-08-05T14:40:31.796Z,148785.06
2022-08-05T14:43:01.266Z,148834.03
2022-08-05T14:45:28.299Z,148848.78
2022-08-05T14:48:03.857Z,148721.28
2022-08-05T14:50:36.068Z,148711.50
2022-08-05T14:53:08.026Z,148712.72
2022-08-05T14:55:39.220Z,148645.31
2022-08-05T14:58:11.407Z,148635.53
2022-08-05T15:00:59.431Z,148586.56
2022-08-05T15:03:33.241Z,148615.94
2022-08-05T15:06:06.819Z,148726.25
2022-08-05T15:09:01.145Z,148809.53
2022-08-05T15:11:52.027Z,148873.28
2022-08-05T15:14:33.562Z,149003.22
2022-08-05T15:17:04.299Z,149074.34
2022-08-05T15:19:32.249Z,149064.56
2022-08-05T15:22:01.197Z,148812.00
2022-08-05T15:24:29.521Z,148890.44
2022-08-05T15:26:57.014Z,149015.50
2022-08-05T15:29:29.816Z,148975.03
2022-08-05T15:32:02.966Z,149122.19
2022-08-05T15:34:32.105Z,149051.06
2022-08-05T15:37:06.469Z,149170.06
2022-08-05T15:40:59.657Z,149235.03
2022-08-05T15:42:54.223Z,149293.94
2022-08-05T15:45:16.662Z,149163.91
2022-08-05T15:47:46.295Z,149063.28
2022-08-05T15:50:15.426Z,149057.19
2022-08-05T15:52:53.371Z,149155.31
2022-08-05T15:55:24.626Z,149133.25
2022-08-05T15:58:08.641Z,149133.25
2022-08-05T16:00:50.486Z,149123.41
2022-08-05T16:03:22.731Z,149109.91
2022-08-05T16:05:52.708Z,149179.84
2022-08-05T16:08:19.875Z,149138.16
2022-08-05T16:10:47.509Z,149047.38
2022-08-05T16:13:23.547Z,148964.03
2022-08-05T16:15:51.858Z,149004.47
2022-08-05T16:18:19.032Z,148802.22
2022-08-05T16:20:46.682Z,148901.44
2022-08-05T16:23:13.767Z,149022.88
2022-08-05T16:25:42.518Z,149111.19
2022-08-05T16:28:13.510Z,149086.63
2022-08-05T16:30:42.706Z,149264.50
2022-08-05T16:33:11.811Z,149167.59
2022-08-05T16:35:44.627Z,149285.38
2022-08-05T16:38:18.448Z,149366.31
2022-08-05T16:41:00.180Z,149475.59
2022-08-05T16:43:31.232Z,149416.69
2022-08-05T16:46:05.190Z,149177.38
2022-08-05T16:48:37.401Z,148858.56
2022-08-05T16:51:09.719Z,148907.59
2022-08-05T16:54:03.383Z,148973.81
2022-08-05T16:56:29.351Z,148965.25
2022-08-05T16:58:57.920Z,148807.13
2022-08-05T17:01:25.147Z,148646.59
2022-08-05T17:03:52.299Z,148559.63
2022-08-05T17:06:20.950Z,148510.59
2022-08-05T17:08:54.186Z,148378.34
2022-08-05T17:11:25.460Z,148464.06
2022-08-05T17:14:00.162Z,148413.88
2022-08-05T17:16:35.841Z,148471.44
2022-08-05T17:19:07.785Z,148481.22
2022-08-05T17:21:37.549Z,148416.34
2022-08-05T17:24:19.508Z,148443.22
2022-08-05T17:26:57.318Z,148349.00
2022-08-05T17:29:33.098Z,148429.75
2022-08-05T17:32:17.078Z,148268.16
2022-08-05T17:34:47.805Z,148229.03
2022-08-05T17:37:40.020Z,148307.34
2022-08-05T17:40:10.820Z,148253.50
2022-08-05T17:42:42.854Z,148210.69
2022-08-05T17:45:20.910Z,148197.22
2022-08-05T17:47:54.483Z,148273.06
2022-08-05T17:50:28.130Z,148314.66
2022-08-05T17:53:02.949Z,148309.78
2022-08-05T17:55:37.569Z,148306.13
2022-08-05T17:58:09.586Z,148335.50
2022-08-05T18:00:44.567Z,148251.06
2022-08-05T18:03:33.237Z,148297.56
2022-08-05T18:06:05.921Z,148270.63
2022-08-05T18:08:38.698Z,148265.75
2022-08-05T18:11:11.405Z,148258.38
2022-08-05T18:13:52.163Z,148247.38
2022-08-05T18:16:20.606Z,148160.50
2022-08-05T18:18:50.137Z,148175.19
2022-08-05T18:21:20.029Z,148189.84
2022-08-05T18:23:53.903Z,148128.66
2022-08-05T18:26:27.658Z,148189.84
2022-08-05T18:28:57.660Z,148205.78
2022-08-05T18:31:24.988Z,148164.19
2022-08-05T18:33:53.719Z,148127.44
2022-08-05T18:36:28.021Z,148133.53
2022-08-05T18:38:55.870Z,148127.44
2022-08-05T18:41:55.881Z,148173.97
2022-08-05T18:44:10.832Z,148123.75
2022-08-05T18:46:41.088Z,148148.25
2022-08-05T18:49:30.458Z,148123.75
2022-08-05T18:52:33.241Z,148088.28
2022-08-05T18:55:02.217Z,148138.44
2022-08-05T18:57:43.290Z,148128.66
2022-08-05T19:00:20.512Z,148095.63
2022-08-05T19:02:48.182Z,148060.16
2022-08-05T19:06:13.455Z,147984.31
2022-08-05T19:08:06.931Z,148005.13
2022-08-05T19:10:41.095Z,148049.16
2022-08-05T19:13:12.417Z,147940.31
2022-08-05T19:15:57.870Z,147985.56
2022-08-05T19:18:28.705Z,147891.34
2022-08-05T19:20:56.126Z,147948.88
2022-08-05T19:24:06.150Z,147935.38
2022-08-05T19:26:11.167Z,147918.25
2022-08-05T19:28:43.330Z,147880.38
2022-08-05T19:31:13.262Z,147874.22
2022-08-05T19:33:48.609Z,147852.25
2022-08-05T19:36:25.857Z,147818.00
2022-08-05T19:39:00.512Z,147827.78
2022-08-05T19:42:05.852Z,147744.66
2022-08-05T19:44:15.348Z,147803.34
2022-08-05T19:46:43.678Z,147798.47
2022-08-05T19:49:12.426Z,147771.56
2022-08-05T19:52:19.689Z,147731.22
2022-08-05T19:54:34.612Z,147777.66
2022-08-05T19:57:06.889Z,147690.84
2022-08-05T20:00:00.265Z,147715.31
2022-08-05T20:02:27.698Z,147715.31
2022-08-05T20:04:58.720Z,147643.22
2022-08-05T20:07:47.899Z,147710.44
2022-08-05T20:10:19.202Z,147696.97
2022-08-05T20:12:49.503Z,147689.63
2022-08-05T20:15:48.851Z,147692.09
2022-08-05T20:18:10.061Z,147668.88
2022-08-05T20:20:56.718Z,147646.88
2022-08-05T20:23:40.102Z,147650.56
2022-08-05T20:26:16.203Z,147643.22
2022-08-05T20:28:50.514Z,147644.41
2022-08-05T20:31:22.810Z,147563.81
2022-08-05T20:33:56.179Z,147546.69
2022-08-05T20:36:24.221Z,147506.38
2022-08-05T20:38:53.510Z,147554.06
2022-08-05T20:41:24.225Z,147475.84
2022-08-05T20:43:59.193Z,147459.94
2022-08-05T20:46:30.055Z,147412.34
2022-08-05T20:48:57.247Z,147385.47
2022-08-05T20:51:24.305Z,147328.06
2022-08-05T20:53:56.389Z,147307.34
2022-08-05T20:56:31.842Z,147293.91
2022-08-05T20:59:13.990Z,147280.47
2022-08-05T21:01:46.398Z,147214.50
2022-08-05T21:04:14.156Z,147220.63
2022-08-05T21:06:45.797Z,147231.59
2022-08-05T21:09:14.546Z,147203.53
2022-08-05T21:12:06.782Z,147208.41
2022-08-05T21:14:31.466Z,147153.50
2022-08-05T21:17:04.974Z,147157.16
2022-08-05T21:19:46.955Z,147121.78
2022-08-05T21:22:23.091Z,147152.28
2022-08-05T21:24:54.158Z,147135.19
2022-08-05T21:27:25.089Z,147138.84
2022-08-05T21:29:55.650Z,147133.97
2022-08-05T21:32:27.063Z,147113.22
2022-08-05T21:35:18.069Z,147049.78
2022-08-05T21:37:53.076Z,147066.88
2022-08-05T21:40:22.543Z,147036.41
2022-08-05T21:42:52.668Z,147018.09
2022-08-05T21:45:24.633Z,146979.00
2022-08-05T21:47:57.163Z,146982.69
2022-08-05T21:50:26.307Z,146914.38
2022-08-05T21:52:53.770Z,146913.16
2022-08-05T21:56:00.753Z,146933.88
2022-08-05T21:58:13.242Z,146914.38
2022-08-05T22:00:40.477Z,146957.03
2022-08-05T22:03:09.833Z,146914.38
2022-08-05T22:05:49.048Z,146911.91
2022-08-05T22:08:22.110Z,146892.41
2022-08-05T22:10:51.641Z,146891.22
2022-08-05T22:14:31.559Z,146892.41
2022-08-05T22:16:26.045Z,146830.25
2022-08-05T22:18:54.595Z,146830.25
2022-08-05T22:21:25.905Z,146836.34
2022-08-05T22:24:13.257Z,146807.06
2022-08-05T22:27:17.751Z,146787.56
2022-08-05T22:29:44.892Z,146780.28
2022-08-05T22:32:17.548Z,146741.25
2022-08-05T22:34:50.141Z,146682.69
2022-08-05T22:37:17.167Z,146707.09
2022-08-05T22:39:45.492Z,146690.03
2022-08-05T22:42:25.374Z,146709.50
2022-08-05T22:44:56.421Z,146725.44
2022-08-05T22:47:29.133Z,146715.63
2022-08-05T22:50:20.933Z,146614.47
2022-08-05T22:52:52.521Z,146716.91
2022-08-05T22:55:21.303Z,146702.22
2022-08-05T22:57:50.445Z,146691.22
2022-08-05T23:00:20.922Z,146670.53
2022-08-05T23:02:50.315Z,146624.19
2022-08-05T23:05:17.815Z,146612.03
2022-08-05T23:07:48.516Z,146629.13
2022-08-05T23:10:19.881Z,146636.41
2022-08-05T23:12:55.217Z,146625.44
2022-08-05T23:15:29.997Z,146577.91
2022-08-05T23:18:11.500Z,146590.09
2022-08-05T23:20:39.063Z,146503.63
2022-08-05T23:23:08.677Z,146548.69
2022-08-05T23:25:51.409Z,146502.41
2022-08-05T23:28:22.917Z,146536.50
2022-08-05T23:30:53.568Z,146540.16
2022-08-05T23:34:02.903Z,146549.91
2022-08-05T23:36:10.289Z,146495.09
2022-08-05T23:38:38.279Z,146467.06
2022-08-05T23:41:05.480Z,146465.88
2022-08-05T23:43:37.298Z,146442.72
2022-08-05T23:46:22.064Z,146440.28
2022-08-05T23:49:00.840Z,146434.19
2022-08-05T23:51:53.587Z,146406.16
2022-08-05T23:54:25.764Z,146402.50
2022-08-05T23:57:04.012Z,146397.63
